sensor_id;sensor_type;location;lat;lon;timestamp;P1;durP1;ratioP1;P2;durP2;ratioP2
2860;SDS011;1438;50.922;6.704;2024-03-06T00:02:12;51.50;;;28.93;;
2860;SDS011;1438;50.922;6.704;2024-03-06T00:04:38;51.40;;;28.17;;
2860;SDS011;1438;50.922;6.704;2024-03-06T00:07:04;58.97;;;30.20;;
2860;SDS011;1438;50.922;6.704;2024-03-06T00:09:30;54.67;;;30.08;;
2860;SDS011;1438;50.922;6.704;2024-03-06T00:11:57;52.47;;;28.70;;
2860;SDS011;1438;50.922;6.704;2024-03-06T00:14:23;56.50;;;27.85;;
2860;SDS011;1438;50.922;6.704;2024-03-06T00:16:49;55.97;;;28.65;;
2860;SDS011;1438;50.922;6.704;2024-03-06T00:19:19;53.10;;;28.23;;
2860;SDS011;1438;50.922;6.704;2024-03-06T00:21:48;58.78;;;31.10;;
2860;SDS011;1438;50.922;6.704;2024-03-06T00:24:14;49.95;;;27.80;;
2860;SDS011;1438;50.922;6.704;2024-03-06T00:26:41;47.05;;;28.48;;
2860;SDS011;1438;50.922;6.704;2024-03-06T00:29:07;53.65;;;26.95;;
2860;SDS011;1438;50.922;6.704;2024-03-06T00:31:33;59.30;;;29.00;;
2860;SDS011;1438;50.922;6.704;2024-03-06T00:33:59;57.03;;;29.30;;
2860;SDS011;1438;50.922;6.704;2024-03-06T00:36:25;52.45;;;29.00;;
2860;SDS011;1438;50.922;6.704;2024-03-06T00:38:51;56.60;;;30.40;;
2860;SDS011;1438;50.922;6.704;2024-03-06T00:41:17;55.03;;;28.05;;
2860;SDS011;1438;50.922;6.704;2024-03-06T00:43:44;56.08;;;30.70;;
2860;SDS011;1438;50.922;6.704;2024-03-06T00:46:10;56.72;;;28.88;;
2860;SDS011;1438;50.922;6.704;2024-03-06T00:48:36;55.70;;;31.50;;
2860;SDS011;1438;50.922;6.704;2024-03-06T00:51:04;62.88;;;31.55;;
2860;SDS011;1438;50.922;6.704;2024-03-06T00:53:31;53.92;;;28.27;;
2860;SDS011;1438;50.922;6.704;2024-03-06T00:55:57;61.60;;;33.47;;
2860;SDS011;1438;50.922;6.704;2024-03-06T00:58:23;54.67;;;30.40;;
2860;SDS011;1438;50.922;6.704;2024-03-06T01:00:49;61.00;;;32.33;;
2860;SDS011;1438;50.922;6.704;2024-03-06T01:03:15;66.83;;;32.90;;
2860;SDS011;1438;50.922;6.704;2024-03-06T01:05:41;60.03;;;31.45;;
2860;SDS011;1438;50.922;6.704;2024-03-06T01:08:07;60.65;;;31.38;;
2860;SDS011;1438;50.922;6.704;2024-03-06T01:10:33;63.80;;;32.73;;
2860;SDS011;1438;50.922;6.704;2024-03-06T01:12:59;64.40;;;31.67;;
2860;SDS011;1438;50.922;6.704;2024-03-06T01:15:25;53.40;;;29.53;;
2860;SDS011;1438;50.922;6.704;2024-03-06T01:17:51;57.70;;;28.77;;
2860;SDS011;1438;50.922;6.704;2024-03-06T01:20:18;64.05;;;32.05;;
2860;SDS011;1438;50.922;6.704;2024-03-06T01:22:44;60.08;;;31.77;;
2860;SDS011;1438;50.922;6.704;2024-03-06T01:25:11;54.88;;;30.30;;
2860;SDS011;1438;50.922;6.704;2024-03-06T01:27:37;53.10;;;28.87;;
2860;SDS011;1438;50.922;6.704;2024-03-06T01:30:03;58.40;;;30.25;;
2860;SDS011;1438;50.922;6.704;2024-03-06T01:32:30;60.28;;;31.73;;
2860;SDS011;1438;50.922;6.704;2024-03-06T01:34:56;67.47;;;34.20;;
2860;SDS011;1438;50.922;6.704;2024-03-06T01:37:22;98.95;;;34.03;;
2860;SDS011;1438;50.922;6.704;2024-03-06T01:39:48;131.30;;;36.30;;
2860;SDS011;1438;50.922;6.704;2024-03-06T01:42:16;162.90;;;42.30;;
2860;SDS011;1438;50.922;6.704;2024-03-06T01:44:43;234.13;;;43.80;;
2860;SDS011;1438;50.922;6.704;2024-03-06T01:47:09;187.53;;;40.30;;
2860;SDS011;1438;50.922;6.704;2024-03-06T01:49:34;222.60;;;45.00;;
2860;SDS011;1438;50.922;6.704;2024-03-06T01:52:01;222.05;;;46.22;;
2860;SDS011;1438;50.922;6.704;2024-03-06T01:54:27;271.67;;;47.15;;
2860;SDS011;1438;50.922;6.704;2024-03-06T01:56:53;153.45;;;39.65;;
2860;SDS011;1438;50.922;6.704;2024-03-06T01:59:21;119.40;;;35.03;;
2860;SDS011;1438;50.922;6.704;2024-03-06T02:01:47;184.13;;;41.50;;
2860;SDS011;1438;50.922;6.704;2024-03-06T02:04:13;171.48;;;41.58;;
2860;SDS011;1438;50.922;6.704;2024-03-06T02:06:39;160.60;;;42.22;;
2860;SDS011;1438;50.922;6.704;2024-03-06T02:09:06;78.07;;;30.58;;
2860;SDS011;1438;50.922;6.704;2024-03-06T02:11:32;47.20;;;28.02;;
2860;SDS011;1438;50.922;6.704;2024-03-06T02:13:58;47.25;;;27.55;;
2860;SDS011;1438;50.922;6.704;2024-03-06T02:16:24;47.50;;;26.95;;
2860;SDS011;1438;50.922;6.704;2024-03-06T02:18:51;59.40;;;28.38;;
2860;SDS011;1438;50.922;6.704;2024-03-06T02:21:18;54.67;;;29.50;;
2860;SDS011;1438;50.922;6.704;2024-03-06T02:23:44;39.70;;;25.17;;
2860;SDS011;1438;50.922;6.704;2024-03-06T02:26:10;49.43;;;26.47;;
2860;SDS011;1438;50.922;6.704;2024-03-06T02:28:36;45.95;;;28.25;;
2860;SDS011;1438;50.922;6.704;2024-03-06T02:31:02;46.40;;;26.27;;
2860;SDS011;1438;50.922;6.704;2024-03-06T02:33:29;37.90;;;23.50;;
2860;SDS011;1438;50.922;6.704;2024-03-06T02:35:55;42.00;;;25.50;;
2860;SDS011;1438;50.922;6.704;2024-03-06T02:38:21;39.00;;;23.60;;
2860;SDS011;1438;50.922;6.704;2024-03-06T02:40:47;33.70;;;22.02;;
2860;SDS011;1438;50.922;6.704;2024-03-06T02:43:13;35.97;;;22.00;;
2860;SDS011;1438;50.922;6.704;2024-03-06T02:45:40;36.13;;;22.25;;
2860;SDS011;1438;50.922;6.704;2024-03-06T02:48:06;36.08;;;22.40;;
2860;SDS011;1438;50.922;6.704;2024-03-06T02:50:33;34.20;;;21.13;;
2860;SDS011;1438;50.922;6.704;2024-03-06T02:52:58;43.53;;;23.00;;
2860;SDS011;1438;50.922;6.704;2024-03-06T02:55:24;33.55;;;21.42;;
2860;SDS011;1438;50.922;6.704;2024-03-06T02:57:50;36.85;;;22.30;;
2860;SDS011;1438;50.922;6.704;2024-03-06T03:00:16;34.80;;;22.37;;
2860;SDS011;1438;50.922;6.704;2024-03-06T03:02:42;32.47;;;20.33;;
2860;SDS011;1438;50.922;6.704;2024-03-06T03:05:08;30.43;;;20.00;;
2860;SDS011;1438;50.922;6.704;2024-03-06T03:07:34;29.83;;;18.67;;
2860;SDS011;1438;50.922;6.704;2024-03-06T03:10:00;29.10;;;17.60;;
2860;SDS011;1438;50.922;6.704;2024-03-06T03:12:26;34.00;;;17.98;;
2860;SDS011;1438;50.922;6.704;2024-03-06T03:14:52;28.57;;;18.07;;
2860;SDS011;1438;50.922;6.704;2024-03-06T03:17:18;29.37;;;17.43;;
2860;SDS011;1438;50.922;6.704;2024-03-06T03:19:44;29.48;;;17.63;;
2860;SDS011;1438;50.922;6.704;2024-03-06T03:22:10;30.17;;;17.33;;
2860;SDS011;1438;50.922;6.704;2024-03-06T03:24:38;27.40;;;17.33;;
2860;SDS011;1438;50.922;6.704;2024-03-06T03:27:04;28.13;;;16.10;;
2860;SDS011;1438;50.922;6.704;2024-03-06T03:29:31;26.23;;;15.77;;
2860;SDS011;1438;50.922;6.704;2024-03-06T03:31:58;24.38;;;16.70;;
2860;SDS011;1438;50.922;6.704;2024-03-06T03:34:24;29.37;;;17.97;;
2860;SDS011;1438;50.922;6.704;2024-03-06T03:36:50;33.55;;;18.30;;
2860;SDS011;1438;50.922;6.704;2024-03-06T03:39:16;34.63;;;18.77;;
2860;SDS011;1438;50.922;6.704;2024-03-06T03:41:45;32.35;;;19.42;;
2860;SDS011;1438;50.922;6.704;2024-03-06T03:44:15;31.88;;;19.08;;
2860;SDS011;1438;50.922;6.704;2024-03-06T03:46:41;37.40;;;21.05;;
2860;SDS011;1438;50.922;6.704;2024-03-06T03:49:07;36.05;;;20.98;;
2860;SDS011;1438;50.922;6.704;2024-03-06T03:51:37;39.53;;;23.15;;
2860;SDS011;1438;50.922;6.704;2024-03-06T03:54:03;46.45;;;23.90;;
2860;SDS011;1438;50.922;6.704;2024-03-06T03:56:29;46.30;;;23.75;;
2860;SDS011;1438;50.922;6.704;2024-03-06T03:58:56;40.25;;;22.58;;
2860;SDS011;1438;50.922;6.704;2024-03-06T04:01:22;45.30;;;20.75;;
2860;SDS011;1438;50.922;6.704;2024-03-06T04:03:48;37.95;;;21.20;;
2860;SDS011;1438;50.922;6.704;2024-03-06T04:06:15;36.85;;;21.35;;
2860;SDS011;1438;50.922;6.704;2024-03-06T04:08:42;31.33;;;19.45;;
2860;SDS011;1438;50.922;6.704;2024-03-06T04:11:08;33.22;;;19.27;;
2860;SDS011;1438;50.922;6.704;2024-03-06T04:13:37;29.00;;;16.93;;
2860;SDS011;1438;50.922;6.704;2024-03-06T04:16:03;35.10;;;20.00;;
2860;SDS011;1438;50.922;6.704;2024-03-06T04:18:33;29.63;;;17.52;;
2860;SDS011;1438;50.922;6.704;2024-03-06T04:21:01;31.30;;;18.60;;
2860;SDS011;1438;50.922;6.704;2024-03-06T04:23:29;28.02;;;16.75;;
2860;SDS011;1438;50.922;6.704;2024-03-06T04:25:55;22.55;;;14.90;;
2860;SDS011;1438;50.922;6.704;2024-03-06T04:28:21;24.85;;;14.38;;
2860;SDS011;1438;50.922;6.704;2024-03-06T04:30:47;27.03;;;16.20;;
2860;SDS011;1438;50.922;6.704;2024-03-06T04:33:13;28.20;;;14.57;;
2860;SDS011;1438;50.922;6.704;2024-03-06T04:35:40;21.08;;;13.50;;
2860;SDS011;1438;50.922;6.704;2024-03-06T04:38:06;22.00;;;14.00;;
2860;SDS011;1438;50.922;6.704;2024-03-06T04:40:32;24.05;;;13.55;;
2860;SDS011;1438;50.922;6.704;2024-03-06T04:42:59;19.67;;;11.82;;
2860;SDS011;1438;50.922;6.704;2024-03-06T04:45:25;17.58;;;10.32;;
2860;SDS011;1438;50.922;6.704;2024-03-06T04:47:51;14.05;;;9.43;;
2860;SDS011;1438;50.922;6.704;2024-03-06T04:50:17;14.85;;;9.98;;
2860;SDS011;1438;50.922;6.704;2024-03-06T04:52:43;13.00;;;9.43;;
2860;SDS011;1438;50.922;6.704;2024-03-06T04:55:12;11.65;;;7.72;;
2860;SDS011;1438;50.922;6.704;2024-03-06T04:57:42;10.50;;;6.93;;
2860;SDS011;1438;50.922;6.704;2024-03-06T05:00:08;10.82;;;7.43;;
2860;SDS011;1438;50.922;6.704;2024-03-06T05:02:35;12.25;;;7.47;;
2860;SDS011;1438;50.922;6.704;2024-03-06T05:05:02;10.07;;;7.00;;
2860;SDS011;1438;50.922;6.704;2024-03-06T05:07:28;13.63;;;6.70;;
2860;SDS011;1438;50.922;6.704;2024-03-06T05:09:54;8.82;;;5.55;;
2860;SDS011;1438;50.922;6.704;2024-03-06T05:12:21;10.93;;;7.10;;
2860;SDS011;1438;50.922;6.704;2024-03-06T05:14:47;11.10;;;7.23;;
2860;SDS011;1438;50.922;6.704;2024-03-06T05:17:13;7.72;;;6.03;;
2860;SDS011;1438;50.922;6.704;2024-03-06T05:19:38;11.30;;;7.00;;
2860;SDS011;1438;50.922;6.704;2024-03-06T05:22:04;8.63;;;5.60;;
2860;SDS011;1438;50.922;6.704;2024-03-06T05:24:30;12.10;;;6.50;;
2860;SDS011;1438;50.922;6.704;2024-03-06T05:26:56;8.43;;;6.15;;
2860;SDS011;1438;50.922;6.704;2024-03-06T05:29:22;9.00;;;6.40;;
2860;SDS011;1438;50.922;6.704;2024-03-06T05:31:48;7.70;;;6.90;;
2860;SDS011;1438;50.922;6.704;2024-03-06T05:34:14;8.60;;;5.80;;
2860;SDS011;1438;50.922;6.704;2024-03-06T05:36:40;10.57;;;5.87;;
2860;SDS011;1438;50.922;6.704;2024-03-06T05:39:06;9.50;;;6.20;;
2860;SDS011;1438;50.922;6.704;2024-03-06T05:41:37;7.93;;;6.38;;
2860;SDS011;1438;50.922;6.704;2024-03-06T05:44:03;8.63;;;6.10;;
2860;SDS011;1438;50.922;6.704;2024-03-06T05:46:29;8.37;;;6.60;;
2860;SDS011;1438;50.922;6.704;2024-03-06T05:48:55;7.13;;;5.55;;
2860;SDS011;1438;50.922;6.704;2024-03-06T05:51:21;11.27;;;7.57;;
2860;SDS011;1438;50.922;6.704;2024-03-06T05:53:47;16.25;;;9.77;;
2860;SDS011;1438;50.922;6.704;2024-03-06T05:56:13;15.90;;;8.57;;
2860;SDS011;1438;50.922;6.704;2024-03-06T05:58:39;10.18;;;7.03;;
2860;SDS011;1438;50.922;6.704;2024-03-06T06:01:05;10.50;;;6.82;;
2860;SDS011;1438;50.922;6.704;2024-03-06T06:03:31;22.70;;;14.23;;
2860;SDS011;1438;50.922;6.704;2024-03-06T06:05:57;29.67;;;15.35;;
2860;SDS011;1438;50.922;6.704;2024-03-06T06:08:24;22.85;;;13.38;;
2860;SDS011;1438;50.922;6.704;2024-03-06T06:10:50;13.60;;;8.35;;
2860;SDS011;1438;50.922;6.704;2024-03-06T06:13:19;10.18;;;8.45;;
2860;SDS011;1438;50.922;6.704;2024-03-06T06:15:46;10.63;;;7.30;;
2860;SDS011;1438;50.922;6.704;2024-03-06T06:18:12;9.52;;;6.78;;
2860;SDS011;1438;50.922;6.704;2024-03-06T06:20:40;10.35;;;6.97;;
2860;SDS011;1438;50.922;6.704;2024-03-06T06:23:06;10.82;;;6.50;;
2860;SDS011;1438;50.922;6.704;2024-03-06T06:25:32;8.00;;;6.07;;
2860;SDS011;1438;50.922;6.704;2024-03-06T06:27:58;8.95;;;6.85;;
2860;SDS011;1438;50.922;6.704;2024-03-06T06:30:24;9.07;;;6.55;;
2860;SDS011;1438;50.922;6.704;2024-03-06T06:32:50;7.70;;;5.70;;
2860;SDS011;1438;50.922;6.704;2024-03-06T06:35:16;11.60;;;7.03;;
2860;SDS011;1438;50.922;6.704;2024-03-06T06:37:42;9.93;;;7.28;;
2860;SDS011;1438;50.922;6.704;2024-03-06T06:40:08;9.67;;;6.07;;
2860;SDS011;1438;50.922;6.704;2024-03-06T06:42:35;9.10;;;7.07;;
2860;SDS011;1438;50.922;6.704;2024-03-06T06:45:01;12.05;;;8.05;;
2860;SDS011;1438;50.922;6.704;2024-03-06T06:47:28;13.05;;;10.52;;
2860;SDS011;1438;50.922;6.704;2024-03-06T06:49:54;13.50;;;10.70;;
2860;SDS011;1438;50.922;6.704;2024-03-06T06:52:20;10.38;;;7.55;;
2860;SDS011;1438;50.922;6.704;2024-03-06T06:54:46;17.07;;;8.50;;
2860;SDS011;1438;50.922;6.704;2024-03-06T06:57:12;9.75;;;6.75;;
2860;SDS011;1438;50.922;6.704;2024-03-06T06:59:37;9.97;;;7.60;;
2860;SDS011;1438;50.922;6.704;2024-03-06T07:02:04;11.10;;;6.95;;
2860;SDS011;1438;50.922;6.704;2024-03-06T07:04:31;11.60;;;7.20;;
2860;SDS011;1438;50.922;6.704;2024-03-06T07:06:57;14.02;;;8.70;;
2860;SDS011;1438;50.922;6.704;2024-03-06T07:09:22;11.23;;;7.33;;
2860;SDS011;1438;50.922;6.704;2024-03-06T07:11:50;10.05;;;7.13;;
2860;SDS011;1438;50.922;6.704;2024-03-06T07:14:16;10.30;;;7.67;;
2860;SDS011;1438;50.922;6.704;2024-03-06T07:16:42;13.07;;;6.77;;
2860;SDS011;1438;50.922;6.704;2024-03-06T07:19:08;12.73;;;7.53;;
2860;SDS011;1438;50.922;6.704;2024-03-06T07:21:34;10.50;;;7.07;;
2860;SDS011;1438;50.922;6.704;2024-03-06T07:24:01;10.68;;;7.80;;
2860;SDS011;1438;50.922;6.704;2024-03-06T07:26:27;11.43;;;7.03;;
2860;SDS011;1438;50.922;6.704;2024-03-06T07:28:55;9.60;;;7.10;;
2860;SDS011;1438;50.922;6.704;2024-03-06T07:31:21;14.20;;;7.85;;
2860;SDS011;1438;50.922;6.704;2024-03-06T07:33:47;9.07;;;7.35;;
2860;SDS011;1438;50.922;6.704;2024-03-06T07:36:13;11.67;;;7.40;;
2860;SDS011;1438;50.922;6.704;2024-03-06T07:38:39;13.38;;;8.02;;
2860;SDS011;1438;50.922;6.704;2024-03-06T07:41:06;10.65;;;8.10;;
2860;SDS011;1438;50.922;6.704;2024-03-06T07:43:32;9.57;;;7.53;;
2860;SDS011;1438;50.922;6.704;2024-03-06T07:45:58;10.50;;;7.80;;
2860;SDS011;1438;50.922;6.704;2024-03-06T07:48:24;11.90;;;6.97;;
2860;SDS011;1438;50.922;6.704;2024-03-06T07:50:50;8.18;;;7.20;;
2860;SDS011;1438;50.922;6.704;2024-03-06T07:53:16;15.03;;;8.17;;
2860;SDS011;1438;50.922;6.704;2024-03-06T07:55:42;12.10;;;7.63;;
2860;SDS011;1438;50.922;6.704;2024-03-06T07:58:09;11.80;;;7.90;;
2860;SDS011;1438;50.922;6.704;2024-03-06T08:00:35;8.48;;;7.65;;
2860;SDS011;1438;50.922;6.704;2024-03-06T08:03:01;11.95;;;7.25;;
2860;SDS011;1438;50.922;6.704;2024-03-06T08:05:30;12.40;;;7.72;;
2860;SDS011;1438;50.922;6.704;2024-03-06T08:07:58;10.70;;;8.52;;
2860;SDS011;1438;50.922;6.704;2024-03-06T08:10:24;14.53;;;8.43;;
2860;SDS011;1438;50.922;6.704;2024-03-06T08:12:50;10.47;;;6.97;;
2860;SDS011;1438;50.922;6.704;2024-03-06T08:15:16;9.33;;;7.00;;
2860;SDS011;1438;50.922;6.704;2024-03-06T08:17:43;15.30;;;7.90;;
2860;SDS011;1438;50.922;6.704;2024-03-06T08:20:09;12.63;;;9.10;;
2860;SDS011;1438;50.922;6.704;2024-03-06T08:22:38;10.85;;;6.93;;
2860;SDS011;1438;50.922;6.704;2024-03-06T08:27:31;14.93;;;8.30;;
2860;SDS011;1438;50.922;6.704;2024-03-06T08:29:57;11.25;;;8.07;;
2860;SDS011;1438;50.922;6.704;2024-03-06T08:32:23;10.20;;;8.47;;
2860;SDS011;1438;50.922;6.704;2024-03-06T08:34:49;11.60;;;8.50;;
2860;SDS011;1438;50.922;6.704;2024-03-06T08:37:15;10.45;;;7.32;;
2860;SDS011;1438;50.922;6.704;2024-03-06T08:39:41;15.03;;;8.80;;
2860;SDS011;1438;50.922;6.704;2024-03-06T08:42:07;11.37;;;8.00;;
2860;SDS011;1438;50.922;6.704;2024-03-06T08:44:33;11.75;;;8.50;;
2860;SDS011;1438;50.922;6.704;2024-03-06T08:46:59;13.37;;;9.30;;
2860;SDS011;1438;50.922;6.704;2024-03-06T08:49:25;12.33;;;8.80;;
2860;SDS011;1438;50.922;6.704;2024-03-06T08:51:51;12.63;;;7.40;;
2860;SDS011;1438;50.922;6.704;2024-03-06T08:54:17;12.83;;;8.90;;
2860;SDS011;1438;50.922;6.704;2024-03-06T08:56:43;12.13;;;8.73;;
2860;SDS011;1438;50.922;6.704;2024-03-06T08:59:09;12.25;;;9.07;;
2860;SDS011;1438;50.922;6.704;2024-03-06T09:01:35;13.17;;;8.73;;
2860;SDS011;1438;50.922;6.704;2024-03-06T09:04:01;11.33;;;8.20;;
2860;SDS011;1438;50.922;6.704;2024-03-06T09:06:27;13.10;;;8.90;;
2860;SDS011;1438;50.922;6.704;2024-03-06T09:08:53;11.90;;;8.37;;
2860;SDS011;1438;50.922;6.704;2024-03-06T09:11:19;10.47;;;8.47;;
2860;SDS011;1438;50.922;6.704;2024-03-06T09:13:45;10.50;;;8.33;;
2860;SDS011;1438;50.922;6.704;2024-03-06T09:16:11;9.23;;;7.90;;
2860;SDS011;1438;50.922;6.704;2024-03-06T09:18:37;9.40;;;7.93;;
2860;SDS011;1438;50.922;6.704;2024-03-06T09:21:03;7.97;;;6.53;;
2860;SDS011;1438;50.922;6.704;2024-03-06T09:23:29;9.73;;;6.43;;
2860;SDS011;1438;50.922;6.704;2024-03-06T09:25:55;17.05;;;12.63;;
2860;SDS011;1438;50.922;6.704;2024-03-06T09:28:21;9.80;;;6.30;;
2860;SDS011;1438;50.922;6.704;2024-03-06T09:30:47;6.15;;;4.65;;
2860;SDS011;1438;50.922;6.704;2024-03-06T09:33:13;7.27;;;3.70;;
2860;SDS011;1438;50.922;6.704;2024-03-06T09:35:39;3.53;;;3.00;;
2860;SDS011;1438;50.922;6.704;2024-03-06T09:38:10;4.27;;;3.37;;
2860;SDS011;1438;50.922;6.704;2024-03-06T09:40:36;6.93;;;3.97;;
2860;SDS011;1438;50.922;6.704;2024-03-06T09:43:02;4.40;;;3.40;;
2860;SDS011;1438;50.922;6.704;2024-03-06T09:45:28;3.80;;;3.27;;
2860;SDS011;1438;50.922;6.704;2024-03-06T09:47:54;6.20;;;3.67;;
2860;SDS011;1438;50.922;6.704;2024-03-06T09:50:23;7.40;;;4.00;;
2860;SDS011;1438;50.922;6.704;2024-03-06T09:52:50;6.13;;;4.23;;
2860;SDS011;1438;50.922;6.704;2024-03-06T09:55:18;4.43;;;3.53;;
2860;SDS011;1438;50.922;6.704;2024-03-06T09:57:45;6.83;;;4.43;;
2860;SDS011;1438;50.922;6.704;2024-03-06T10:00:11;5.60;;;4.33;;
2860;SDS011;1438;50.922;6.704;2024-03-06T10:02:38;5.20;;;4.30;;
2860;SDS011;1438;50.922;6.704;2024-03-06T10:05:04;7.47;;;5.20;;
2860;SDS011;1438;50.922;6.704;2024-03-06T10:07:30;5.90;;;4.80;;
2860;SDS011;1438;50.922;6.704;2024-03-06T10:09:56;5.00;;;4.40;;
2860;SDS011;1438;50.922;6.704;2024-03-06T10:12:23;7.20;;;5.20;;
2860;SDS011;1438;50.922;6.704;2024-03-06T10:14:52;6.77;;;5.03;;
2860;SDS011;1438;50.922;6.704;2024-03-06T10:17:22;8.83;;;6.20;;
2860;SDS011;1438;50.922;6.704;2024-03-06T10:19:48;7.90;;;5.63;;
2860;SDS011;1438;50.922;6.704;2024-03-06T10:22:17;8.47;;;5.17;;
2860;SDS011;1438;50.922;6.704;2024-03-06T10:24:43;7.07;;;5.50;;
2860;SDS011;1438;50.922;6.704;2024-03-06T10:27:14;6.57;;;4.93;;
2860;SDS011;1438;50.922;6.704;2024-03-06T10:29:41;7.40;;;5.67;;
2860;SDS011;1438;50.922;6.704;2024-03-06T10:32:07;9.37;;;5.73;;
2860;SDS011;1438;50.922;6.704;2024-03-06T10:34:33;8.27;;;5.53;;
2860;SDS011;1438;50.922;6.704;2024-03-06T10:37:00;7.80;;;5.57;;
2860;SDS011;1438;50.922;6.704;2024-03-06T10:39:28;8.20;;;5.97;;
2860;SDS011;1438;50.922;6.704;2024-03-06T10:41:56;7.90;;;6.47;;
2860;SDS011;1438;50.922;6.704;2024-03-06T10:44:23;8.90;;;6.13;;
2860;SDS011;1438;50.922;6.704;2024-03-06T10:47:00;8.10;;;5.70;;
2860;SDS011;1438;50.922;6.704;2024-03-06T10:49:27;7.50;;;6.50;;
2860;SDS011;1438;50.922;6.704;2024-03-06T10:52:01;6.27;;;5.63;;
2860;SDS011;1438;50.922;6.704;2024-03-06T10:54:28;7.93;;;6.13;;
2860;SDS011;1438;50.922;6.704;2024-03-06T10:56:55;7.83;;;6.90;;
2860;SDS011;1438;50.922;6.704;2024-03-06T10:59:21;9.33;;;7.53;;
2860;SDS011;1438;50.922;6.704;2024-03-06T11:01:52;11.83;;;7.77;;
2860;SDS011;1438;50.922;6.704;2024-03-06T11:04:19;7.97;;;7.17;;
2860;SDS011;1438;50.922;6.704;2024-03-06T11:06:45;9.83;;;8.13;;
2860;SDS011;1438;50.922;6.704;2024-03-06T11:09:13;10.87;;;9.30;;
2860;SDS011;1438;50.922;6.704;2024-03-06T11:11:47;13.63;;;9.93;;
2860;SDS011;1438;50.922;6.704;2024-03-06T11:14:14;13.63;;;10.40;;
2860;SDS011;1438;50.922;6.704;2024-03-06T11:16:59;15.53;;;9.47;;
2860;SDS011;1438;50.922;6.704;2024-03-06T11:19:27;14.02;;;10.43;;
2860;SDS011;1438;50.922;6.704;2024-03-06T11:21:53;17.02;;;10.32;;
2860;SDS011;1438;50.922;6.704;2024-03-06T11:24:20;16.37;;;11.30;;
2860;SDS011;1438;50.922;6.704;2024-03-06T11:26:47;15.57;;;11.10;;
2860;SDS011;1438;50.922;6.704;2024-03-06T11:29:17;17.15;;;12.40;;
2860;SDS011;1438;50.922;6.704;2024-03-06T11:31:57;18.25;;;12.60;;
2860;SDS011;1438;50.922;6.704;2024-03-06T11:34:25;17.33;;;12.25;;
2860;SDS011;1438;50.922;6.704;2024-03-06T11:36:56;25.23;;;18.67;;
2860;SDS011;1438;50.922;6.704;2024-03-06T11:39:22;18.63;;;13.43;;
2860;SDS011;1438;50.922;6.704;2024-03-06T11:41:49;17.27;;;12.93;;
2860;SDS011;1438;50.922;6.704;2024-03-06T11:44:16;20.98;;;12.90;;
2860;SDS011;1438;50.922;6.704;2024-03-06T11:46:45;16.03;;;12.93;;
2860;SDS011;1438;50.922;6.704;2024-03-06T11:49:16;17.70;;;13.17;;
2860;SDS011;1438;50.922;6.704;2024-03-06T11:51:49;17.53;;;11.50;;
2860;SDS011;1438;50.922;6.704;2024-03-06T11:54:15;13.40;;;11.40;;
2860;SDS011;1438;50.922;6.704;2024-03-06T11:56:44;12.90;;;10.00;;
2860;SDS011;1438;50.922;6.704;2024-03-06T11:59:12;18.33;;;13.13;;
2860;SDS011;1438;50.922;6.704;2024-03-06T12:01:38;15.27;;;12.03;;
2860;SDS011;1438;50.922;6.704;2024-03-06T12:04:04;17.00;;;11.90;;
2860;SDS011;1438;50.922;6.704;2024-03-06T12:06:32;16.50;;;12.03;;
2860;SDS011;1438;50.922;6.704;2024-03-06T12:08:58;18.15;;;12.13;;
2860;SDS011;1438;50.922;6.704;2024-03-06T12:11:25;16.92;;;12.80;;
2860;SDS011;1438;50.922;6.704;2024-03-06T12:13:53;15.98;;;12.95;;
2860;SDS011;1438;50.922;6.704;2024-03-06T12:16:19;16.40;;;12.80;;
2860;SDS011;1438;50.922;6.704;2024-03-06T12:18:45;15.20;;;12.77;;
2860;SDS011;1438;50.922;6.704;2024-03-06T12:21:11;14.45;;;12.15;;
2860;SDS011;1438;50.922;6.704;2024-03-06T12:23:39;15.43;;;12.43;;
2860;SDS011;1438;50.922;6.704;2024-03-06T12:26:08;15.02;;;12.73;;
2860;SDS011;1438;50.922;6.704;2024-03-06T12:28:36;15.60;;;11.80;;
2860;SDS011;1438;50.922;6.704;2024-03-06T12:31:03;12.90;;;11.00;;
2860;SDS011;1438;50.922;6.704;2024-03-06T12:33:29;14.90;;;11.70;;
2860;SDS011;1438;50.922;6.704;2024-03-06T12:36:05;16.37;;;11.30;;
2860;SDS011;1438;50.922;6.704;2024-03-06T12:38:32;12.47;;;10.33;;
2860;SDS011;1438;50.922;6.704;2024-03-06T12:40:58;11.70;;;9.40;;
2860;SDS011;1438;50.922;6.704;2024-03-06T12:43:25;19.50;;;10.20;;
2860;SDS011;1438;50.922;6.704;2024-03-06T12:45:51;10.87;;;7.87;;
2860;SDS011;1438;50.922;6.704;2024-03-06T12:48:22;8.23;;;7.30;;
2860;SDS011;1438;50.922;6.704;2024-03-06T12:50:48;11.20;;;7.60;;
2860;SDS011;1438;50.922;6.704;2024-03-06T12:53:17;8.43;;;6.93;;
2860;SDS011;1438;50.922;6.704;2024-03-06T12:55:44;9.50;;;7.30;;
2860;SDS011;1438;50.922;6.704;2024-03-06T12:58:11;8.30;;;6.93;;
2860;SDS011;1438;50.922;6.704;2024-03-06T13:00:37;8.90;;;8.00;;
2860;SDS011;1438;50.922;6.704;2024-03-06T13:03:03;21.30;;;14.43;;
2860;SDS011;1438;50.922;6.704;2024-03-06T13:05:29;13.30;;;11.37;;
2860;SDS011;1438;50.922;6.704;2024-03-06T13:07:56;13.20;;;10.33;;
2860;SDS011;1438;50.922;6.704;2024-03-06T13:10:22;8.00;;;7.20;;
2860;SDS011;1438;50.922;6.704;2024-03-06T13:12:48;12.20;;;8.20;;
2860;SDS011;1438;50.922;6.704;2024-03-06T13:15:14;13.33;;;10.20;;
2860;SDS011;1438;50.922;6.704;2024-03-06T13:17:40;12.17;;;9.47;;
2860;SDS011;1438;50.922;6.704;2024-03-06T13:20:06;11.00;;;7.70;;
2860;SDS011;1438;50.922;6.704;2024-03-06T13:22:39;15.70;;;7.10;;
2860;SDS011;1438;50.922;6.704;2024-03-06T13:25:05;10.33;;;7.83;;
2860;SDS011;1438;50.922;6.704;2024-03-06T13:27:31;10.80;;;7.40;;
2860;SDS011;1438;50.922;6.704;2024-03-06T13:29:57;8.90;;;7.97;;
2860;SDS011;1438;50.922;6.704;2024-03-06T13:32:23;9.43;;;8.20;;
2860;SDS011;1438;50.922;6.704;2024-03-06T13:34:49;9.80;;;7.53;;
2860;SDS011;1438;50.922;6.704;2024-03-06T13:37:15;9.40;;;8.40;;
2860;SDS011;1438;50.922;6.704;2024-03-06T13:39:41;9.77;;;7.70;;
2860;SDS011;1438;50.922;6.704;2024-03-06T13:42:07;12.40;;;8.00;;
2860;SDS011;1438;50.922;6.704;2024-03-06T13:44:34;10.13;;;8.40;;
2860;SDS011;1438;50.922;6.704;2024-03-06T13:47:00;9.13;;;8.00;;
2860;SDS011;1438;50.922;6.704;2024-03-06T13:49:34;14.63;;;9.93;;
2860;SDS011;1438;50.922;6.704;2024-03-06T13:52:00;10.17;;;7.70;;
2860;SDS011;1438;50.922;6.704;2024-03-06T13:54:26;10.10;;;7.37;;
2860;SDS011;1438;50.922;6.704;2024-03-06T13:56:52;8.93;;;8.00;;
2860;SDS011;1438;50.922;6.704;2024-03-06T13:59:26;10.87;;;7.67;;
2860;SDS011;1438;50.922;6.704;2024-03-06T14:01:52;10.10;;;8.40;;
2860;SDS011;1438;50.922;6.704;2024-03-06T14:04:18;8.60;;;7.63;;
2860;SDS011;1438;50.922;6.704;2024-03-06T14:06:44;10.00;;;7.90;;
2860;SDS011;1438;50.922;6.704;2024-03-06T14:09:10;8.13;;;7.33;;
2860;SDS011;1438;50.922;6.704;2024-03-06T14:11:38;8.37;;;7.57;;
2860;SDS011;1438;50.922;6.704;2024-03-06T14:14:05;9.03;;;6.90;;
2860;SDS011;1438;50.922;6.704;2024-03-06T14:16:31;7.80;;;6.93;;
2860;SDS011;1438;50.922;6.704;2024-03-06T14:18:57;9.77;;;7.93;;
2860;SDS011;1438;50.922;6.704;2024-03-06T14:21:23;11.33;;;7.70;;
2860;SDS011;1438;50.922;6.704;2024-03-06T14:23:49;8.83;;;7.47;;
2860;SDS011;1438;50.922;6.704;2024-03-06T14:26:15;10.40;;;7.30;;
2860;SDS011;1438;50.922;6.704;2024-03-06T14:28:41;8.07;;;6.80;;
2860;SDS011;1438;50.922;6.704;2024-03-06T14:31:07;8.40;;;7.60;;
2860;SDS011;1438;50.922;6.704;2024-03-06T14:33:35;7.83;;;6.43;;
2860;SDS011;1438;50.922;6.704;2024-03-06T14:36:02;8.13;;;6.60;;
2860;SDS011;1438;50.922;6.704;2024-03-06T14:38:28;16.90;;;15.10;;
2860;SDS011;1438;50.922;6.704;2024-03-06T14:40:53;11.60;;;10.40;;
2860;SDS011;1438;50.922;6.704;2024-03-06T14:43:20;9.17;;;7.80;;
2860;SDS011;1438;50.922;6.704;2024-03-06T14:45:46;6.83;;;6.17;;
2860;SDS011;1438;50.922;6.704;2024-03-06T14:48:12;7.43;;;6.57;;
2860;SDS011;1438;50.922;6.704;2024-03-06T14:50:38;7.83;;;7.00;;
2860;SDS011;1438;50.922;6.704;2024-03-06T14:53:03;9.30;;;6.53;;
2860;SDS011;1438;50.922;6.704;2024-03-06T14:55:30;7.30;;;6.60;;
2860;SDS011;1438;50.922;6.704;2024-03-06T14:57:56;7.17;;;6.47;;